Time;durP1;ratioP1;P1;durP2;ratioP2;P2;SDS_P1;SDS_P2;PMS_P1;PMS_P2;Temp;Humidity;BMP_temperature;BMP_pressure;BME280_temperature;BME280_humidity;BME280_pressure;Samples;Min_cycle;Max_cycle;Signal;HPM_P1;HPM_P2
2023/03/10 00:00:51;;;;;;;41.45;18.65;;;;;;;-144.87;100.00;61487.56;4975730;28;20030;-83
2023/03/10 00:03:18;;;;;;;37.85;18.17;;;;;;;-144.87;100.00;61487.56;4975564;28;20121;-83
2023/03/10 00:05:44;;;;;;;36.25;17.90;;;;;;;-144.87;100.00;61487.56;4978394;28;20027;-82
2023/03/10 00:08:10;;;;;;;40.13;18.08;;;;;;;-144.87;100.00;61487.56;4968003;28;20102;-82
2023/03/10 00:10:37;;;;;;;39.58;19.10;;;;;;;-144.87;100.00;61487.56;4977656;28;20104;-82
2023/03/10 00:13:03;;;;;;;34.70;17.50;;;;;;;-144.87;100.00;61487.56;4977906;28;20042;-83
2023/03/10 00:15:30;;;;;;;38.50;18.33;;;;;;;-144.87;100.00;61487.56;4967294;28;20050;-82
2023/03/10 00:17:56;;;;;;;40.00;18.55;;;;;;;-144.87;100.00;61487.56;4975959;28;20058;-83
2023/03/10 00:20:23;;;;;;;36.65;18.42;;;;;;;-144.87;100.00;61487.56;4966427;28;20061;-83
2023/03/10 00:22:49;;;;;;;37.70;17.58;;;;;;;-144.87;100.00;61487.56;4976832;28;20543;-83
2023/03/10 00:25:15;;;;;;;36.00;17.30;;;;;;;-144.87;100.00;61487.56;4988683;28;20492;-83
2023/03/10 00:27:42;;;;;;;41.75;19.55;;;;;;;-144.87;100.00;61487.56;4970204;28;20042;-83
2023/03/10 00:30:08;;;;;;;40.83;18.77;;;;;;;-144.87;100.00;61487.56;4960904;28;20039;-82
2023/03/10 00:32:35;;;;;;;36.13;19.45;;;;;;;-144.87;100.00;61487.56;4979992;28;20494;-81
2023/03/10 00:35:04;;;;;;;35.63;17.75;;;;;;;-144.87;100.00;61487.56;4975430;28;20058;-81
2023/03/10 00:37:30;;;;;;;37.88;18.08;;;;;;;-144.87;100.00;61487.56;4981446;28;20034;-82
2023/03/10 00:39:56;;;;;;;37.05;18.08;;;;;;;-144.87;100.00;61487.56;4980129;28;20046;-82
2023/03/10 00:42:23;;;;;;;32.45;16.52;;;;;;;-144.87;100.00;61487.56;4960944;28;20038;-82
2023/03/10 00:44:50;;;;;;;34.83;17.25;;;;;;;-144.87;100.00;61487.56;4978317;28;20062;-83
2023/03/10 00:47:18;;;;;;;38.47;18.08;;;;;;;-144.87;100.00;61487.56;4986185;28;20042;-83
2023/03/10 00:49:46;;;;;;;43.35;19.67;;;;;;;-144.87;100.00;61487.56;4977086;28;20054;-82
2023/03/10 00:52:12;;;;;;;37.78;18.88;;;;;;;-144.87;100.00;61487.56;4969195;28;20038;-83
2023/03/10 00:54:40;;;;;;;38.97;18.50;;;;;;;-144.87;100.00;61487.56;4969135;28;20043;-83
2023/03/10 00:57:06;;;;;;;35.60;17.45;;;;;;;-144.87;100.00;61487.56;4968718;28;20113;-83
2023/03/10 00:59:33;;;;;;;35.78;17.80;;;;;;;-144.87;100.00;61487.56;4969362;28;20042;-83
2023/03/10 01:01:59;;;;;;;37.55;17.92;;;;;;;-144.87;100.00;61487.56;4973138;28;20461;-83
2023/03/10 01:04:25;;;;;;;38.63;17.77;;;;;;;-144.87;100.00;61487.56;4980983;28;20474;-82
2023/03/10 01:06:51;;;;;;;35.55;16.65;;;;;;;-144.87;100.00;61487.56;4974489;28;20042;-82
2023/03/10 01:09:18;;;;;;;35.47;17.00;;;;;;;-144.87;100.00;61487.56;4981880;28;20085;-82
2023/03/10 01:11:44;;;;;;;38.00;17.52;;;;;;;-144.87;100.00;61487.56;4969421;28;20042;-83
2023/03/10 01:14:16;;;;;;;41.28;18.85;;;;;;;-144.87;100.00;61487.56;4967755;28;20057;-82
2023/03/10 01:16:42;;;;;;;39.72;18.45;;;;;;;-144.87;100.00;61487.56;4971319;28;20050;-82
2023/03/10 01:19:09;;;;;;;35.80;17.25;;;;;;;-144.87;100.00;61487.56;4968113;28;20062;-83
2023/03/10 01:21:37;;;;;;;38.60;18.00;;;;;;;-144.87;100.00;61487.56;4982354;28;20522;-82
2023/03/10 01:24:04;;;;;;;41.05;17.75;;;;;;;-144.87;100.00;61487.56;4977353;28;20094;-83
2023/03/10 01:26:30;;;;;;;39.85;17.85;;;;;;;-144.87;100.00;61487.56;4970139;28;20153;-83
2023/03/10 01:28:57;;;;;;;40.47;17.60;;;;;;;-144.87;100.00;61487.56;4976165;28;20027;-83
2023/03/10 01:31:23;;;;;;;40.88;17.58;;;;;;;-144.87;100.00;61487.56;4965901;28;20038;-82
2023/03/10 01:33:50;;;;;;;41.30;18.60;;;;;;;-144.87;100.00;61487.56;4961203;28;20093;-83
2023/03/10 01:36:26;;;;;;;39.03;18.15;;;;;;;-144.87;100.00;61487.56;4980671;28;20123;-83
2023/03/10 01:38:55;;;;;;;43.13;20.00;;;;;;;-144.87;100.00;61487.56;4969460;28;20042;-83
2023/03/10 01:41:21;;;;;;;42.08;19.88;;;;;;;-144.87;100.00;61487.56;4971458;28;20045;-83
2023/03/10 01:43:49;;;;;;;42.53;18.63;;;;;;;-144.87;100.00;61487.56;4965074;28;20041;-83
2023/03/10 01:46:38;;;;;;;40.72;19.70;;;;;;;-144.87;100.00;61487.56;4981842;28;20133;-83
2023/03/10 01:49:30;;;;;;;44.05;18.45;;;;;;;-144.87;100.00;61487.56;4974744;28;20098;-82
2023/03/10 01:51:59;;;;;;;44.67;19.13;;;;;;;-144.87;100.00;61487.56;4989223;28;20038;-83
2023/03/10 01:54:31;;;;;;;45.20;18.40;;;;;;;-144.87;100.00;61487.56;4973567;28;20043;-82
2023/03/10 01:56:58;;;;;;;49.78;20.58;;;;;;;-144.87;100.00;61487.56;4967070;28;20035;-83
2023/03/10 01:59:26;;;;;;;51.15;20.88;;;;;;;-144.87;100.00;61487.56;4974218;28;20189;-83
2023/03/10 02:01:56;;;;;;;35.38;15.82;;;;;;;-144.87;100.00;61487.56;4990497;28;20034;-82
2023/03/10 02:04:40;;;;;;;49.17;20.35;;;;;;;-144.87;100.00;61487.56;4958711;28;20230;-83
2023/03/10 02:07:06;;;;;;;44.97;19.25;;;;;;;-144.87;100.00;61487.56;4964990;28;20087;-82
2023/03/10 02:09:34;;;;;;;47.40;19.50;;;;;;;-144.87;100.00;61487.56;4957746;28;20061;-83
2023/03/10 02:12:03;;;;;;;47.45;19.63;;;;;;;-144.87;100.00;61487.56;4969256;28;20026;-83
2023/03/10 02:14:31;;;;;;;49.28;20.63;;;;;;;-144.87;100.00;61487.56;4945676;28;20595;-82
2023/03/10 02:16:58;;;;;;;47.17;19.23;;;;;;;-144.87;100.00;61487.56;4963740;28;20037;-83
2023/03/10 02:19:41;;;;;;;48.33;20.40;;;;;;;-144.87;100.00;61487.56;4972645;28;20038;-83
2023/03/10 02:22:09;;;;;;;43.15;18.85;;;;;;;-144.87;100.00;61487.56;4967266;28;20425;-82
2023/03/10 02:24:50;;;;;;;45.00;19.92;;;;;;;-144.87;100.00;61487.56;4971611;28;20042;-82
2023/03/10 02:27:25;;;;;;;48.55;20.00;;;;;;;-144.87;100.00;61487.56;4979789;28;20057;-82
2023/03/10 02:30:03;;;;;;;50.55;20.92;;;;;;;-144.87;100.00;61487.56;4962807;28;20397;-82
2023/03/10 02:32:38;;;;;;;48.85;20.33;;;;;;;-144.87;100.00;61487.56;4969352;28;20403;-82
2023/03/10 02:35:05;;;;;;;47.92;18.77;;;;;;;-144.87;100.00;61487.56;4964072;28;20030;-83
2023/03/10 02:37:36;;;;;;;49.72;20.48;;;;;;;-144.87;100.00;61487.56;4964540;28;20027;-83
2023/03/10 02:40:20;;;;;;;54.42;21.52;;;;;;;-144.87;100.00;61487.56;4966677;28;20116;-82
2023/03/10 02:42:46;;;;;;;52.80;22.08;;;;;;;-144.87;100.00;61487.56;4976988;28;20691;-81
2023/03/10 02:45:14;;;;;;;54.35;20.83;;;;;;;-144.87;100.00;61487.56;4994320;28;20042;-82
2023/03/10 02:47:40;;;;;;;60.58;21.85;;;;;;;-144.87;100.00;61487.56;4982657;28;20027;-82
2023/03/10 02:50:08;;;;;;;52.00;21.13;;;;;;;-144.87;100.00;61487.56;4970676;28;20066;-82
2023/03/10 02:52:42;;;;;;;54.70;20.52;;;;;;;-144.87;100.00;61487.56;4974167;28;20026;-82
2023/03/10 02:55:14;;;;;;;59.13;19.90;;;;;;;-144.87;100.00;61487.56;4952283;28;20507;-82
2023/03/10 02:57:40;;;;;;;49.17;19.98;;;;;;;-144.87;100.00;61487.56;4971750;28;20042;-81
2023/03/10 03:00:08;;;;;;;51.65;18.23;;;;;;;-144.87;100.00;61487.56;4966964;28;20034;-82
2023/03/10 03:02:34;;;;;;;52.28;19.38;;;;;;;-144.87;100.00;61487.56;4956351;28;20093;-82
2023/03/10 03:05:00;;;;;;;51.03;19.00;;;;;;;-144.87;100.00;61487.56;4965397;28;20018;-81
2023/03/10 03:07:28;;;;;;;52.58;18.90;;;;;;;-144.87;100.00;61487.56;4970398;28;20105;-82
2023/03/10 03:09:54;;;;;;;52.22;19.50;;;;;;;-144.87;100.00;61487.56;4972812;28;20171;-81
2023/03/10 03:12:21;;;;;;;49.17;17.73;;;;;;;-144.87;100.00;61487.56;4980354;28;20097;-82
2023/03/10 03:14:47;;;;;;;45.92;17.25;;;;;;;-144.87;100.00;61487.56;4960345;28;20035;-82
2023/03/10 03:17:16;;;;;;;42.95;16.30;;;;;;;-144.87;100.00;61487.56;4968603;28;20479;-82
2023/03/10 03:19:42;;;;;;;45.78;16.95;;;;;;;-144.87;100.00;61487.56;4973620;28;20098;-81
2023/03/10 03:22:08;;;;;;;46.33;17.17;;;;;;;-144.87;100.00;61487.56;4986976;28;20551;-81
2023/03/10 03:24:35;;;;;;;45.47;17.10;;;;;;;-144.87;100.00;61487.56;4962414;28;20031;-82
2023/03/10 03:27:03;;;;;;;45.08;16.63;;;;;;;-144.87;100.00;61487.56;4965081;28;20502;-81
2023/03/10 03:29:29;;;;;;;49.45;17.17;;;;;;;-144.87;100.00;61487.56;4975242;28;20439;-81
2023/03/10 03:31:56;;;;;;;40.50;16.00;;;;;;;-144.87;100.00;61487.56;4973090;28;20039;-82
2023/03/10 03:34:26;;;;;;;40.05;16.20;;;;;;;-144.87;100.00;61487.56;4971273;28;20125;-82
2023/03/10 03:36:56;;;;;;;40.22;15.68;;;;;;;-144.87;100.00;61487.56;4974869;28;20030;-82
2023/03/10 03:39:28;;;;;;;45.85;16.92;;;;;;;-144.87;100.00;61487.56;4965612;28;20058;-82
2023/03/10 03:41:58;;;;;;;41.13;15.70;;;;;;;-144.87;100.00;61487.56;4981107;28;20065;-82
2023/03/10 03:44:28;;;;;;;41.20;15.65;;;;;;;-144.87;100.00;61487.56;4965014;28;20403;-82
2023/03/10 03:46:56;;;;;;;39.38;15.40;;;;;;;-144.87;100.00;61487.56;4969746;28;20027;-82
2023/03/10 03:49:23;;;;;;;36.15;15.13;;;;;;;-144.87;100.00;61487.56;4978753;28;20074;-82
2023/03/10 03:51:51;;;;;;;38.22;13.70;;;;;;;-144.87;100.00;61487.56;4965555;28;20034;-81
2023/03/10 03:54:18;;;;;;;35.72;14.65;;;;;;;-144.87;100.00;61487.56;4965176;28;20126;-84
2023/03/10 03:56:45;;;;;;;31.10;13.63;;;;;;;-144.87;100.00;61487.56;4973874;28;20035;-81
2023/03/10 03:59:13;;;;;;;32.15;13.18;;;;;;;-144.87;100.00;61487.56;4971776;28;20072;-82
2023/03/10 04:01:40;;;;;;;33.58;13.65;;;;;;;-144.87;100.00;61487.56;4963670;28;20064;-82
2023/03/10 04:04:06;;;;;;;31.77;12.55;;;;;;;-144.87;100.00;61487.56;4982540;28;20145;-82
2023/03/10 04:06:33;;;;;;;36.65;14.70;;;;;;;-144.87;100.00;61487.56;4965485;28;20108;-82
2023/03/10 04:08:59;;;;;;;34.95;13.57;;;;;;;-144.87;100.00;61487.56;4981298;28;20038;-82
2023/03/10 04:11:28;;;;;;;35.88;14.32;;;;;;;-144.87;100.00;61487.56;4966692;28;20527;-82
2023/03/10 04:13:55;;;;;;;36.45;14.05;;;;;;;-144.87;100.00;61487.56;4952372;28;20404;-82
2023/03/10 04:16:21;;;;;;;42.88;15.35;;;;;;;-144.87;100.00;61487.56;4977714;28;20038;-82
2023/03/10 04:18:48;;;;;;;41.63;15.68;;;;;;;-144.87;100.00;61487.56;4970191;28;20042;-82
2023/03/10 04:21:16;;;;;;;38.38;14.75;;;;;;;-144.87;100.00;61487.56;4969711;28;20069;-82
2023/03/10 04:23:43;;;;;;;38.67;15.70;;;;;;;-144.87;100.00;61487.56;4979695;28;20058;-82
2023/03/10 04:26:13;;;;;;;39.47;14.30;;;;;;;-144.87;100.00;61487.56;4971924;28;20057;-82
2023/03/10 04:28:40;;;;;;;39.15;14.70;;;;;;;-144.87;100.00;61487.56;4970411;28;20041;-82
2023/03/10 04:31:15;;;;;;;36.95;14.13;;;;;;;-144.87;100.00;61487.56;4962798;28;20030;-82
2023/03/10 04:33:42;;;;;;;34.78;14.43;;;;;;;-144.87;100.00;61487.56;4974116;28;20041;-82
2023/03/10 04:36:08;;;;;;;39.33;14.43;;;;;;;-144.87;100.00;61487.56;4966724;28;20035;-82
2023/03/10 04:38:36;;;;;;;36.15;13.30;;;;;;;-144.87;100.00;61487.56;4969270;28;20039;-82
2023/03/10 04:41:04;;;;;;;36.22;13.35;;;;;;;-144.87;100.00;61487.56;4970670;28;20073;-82
2023/03/10 04:43:34;;;;;;;35.90;14.13;;;;;;;-144.87;100.00;61487.56;4984387;28;20035;-82
2023/03/10 04:46:01;;;;;;;36.72;13.70;;;;;;;-144.87;100.00;61487.56;4972814;28;20492;-82
2023/03/10 04:48:28;;;;;;;36.85;12.73;;;;;;;-144.87;100.00;61487.56;4968792;28;20043;-83
2023/03/10 04:50:57;;;;;;;35.78;12.63;;;;;;;-144.87;100.00;61487.56;4969219;28;20041;-82
2023/03/10 04:53:25;;;;;;;33.08;11.93;;;;;;;-144.87;100.00;61487.56;4968257;28;20038;-83
2023/03/10 04:55:51;;;;;;;35.47;11.95;;;;;;;-144.87;100.00;61487.56;4967723;28;20038;-82
2023/03/10 04:58:19;;;;;;;34.88;12.50;;;;;;;-144.87;100.00;61487.56;4972098;28;20026;-83
2023/03/10 05:00:46;;;;;;;33.35;12.38;;;;;;;-144.87;100.00;61487.56;4966292;28;20035;-82
2023/03/10 05:03:13;;;;;;;32.17;12.02;;;;;;;-144.87;100.00;61487.56;4991508;28;20035;-83
2023/03/10 05:05:39;;;;;;;33.78;12.23;;;;;;;-144.87;100.00;61487.56;4968141;28;20374;-82
2023/03/10 05:08:06;;;;;;;33.08;12.13;;;;;;;-144.87;100.00;61487.56;4970546;28;20154;-83
2023/03/10 05:10:51;;;;;;;33.58;12.57;;;;;;;-144.87;100.00;61487.56;4979385;28;20031;-82
2023/03/10 05:13:19;;;;;;;34.72;12.50;;;;;;;-144.87;100.00;61487.56;4969711;28;20492;-82
2023/03/10 05:15:46;;;;;;;36.63;13.30;;;;;;;-144.87;100.00;61487.56;4976789;28;20039;-83
2023/03/10 05:18:12;;;;;;;34.15;12.93;;;;;;;-144.87;100.00;61487.56;4979091;28;20827;-82
2023/03/10 05:20:39;;;;;;;32.90;10.98;;;;;;;-144.87;100.00;61487.56;4969222;28;20073;-83
2023/03/10 05:23:05;;;;;;;32.25;11.13;;;;;;;-144.87;100.00;61487.56;4967760;28;20506;-83
2023/03/10 05:25:32;;;;;;;35.17;11.85;;;;;;;-144.87;100.00;61487.56;4975178;28;20129;-83
2023/03/10 05:27:59;;;;;;;29.02;11.43;;;;;;;-144.87;100.00;61487.56;4961955;28;20034;-83
2023/03/10 05:30:26;;;;;;;30.88;10.82;;;;;;;-144.87;100.00;61487.56;4965192;28;20474;-83
2023/03/10 05:32:54;;;;;;;28.65;10.57;;;;;;;-144.87;100.00;61487.56;4966975;28;20046;-82
2023/03/10 05:35:20;;;;;;;29.00;11.43;;;;;;;-144.87;100.00;61487.56;4984232;28;20065;-83
2023/03/10 05:37:47;;;;;;;31.10;11.00;;;;;;;-144.87;100.00;61487.56;4964824;28;20069;-83
2023/03/10 05:40:15;;;;;;;29.23;11.68;;;;;;;-144.87;100.00;61487.56;4962510;28;20400;-83
2023/03/10 05:42:43;;;;;;;38.88;12.85;;;;;;;-144.87;100.00;61487.56;4961451;28;20027;-83
2023/03/10 05:45:10;;;;;;;30.60;11.25;;;;;;;-144.87;100.00;61487.56;4980622;28;20037;-83
2023/03/10 05:47:55;;;;;;;31.08;11.90;;;;;;;-144.87;100.00;61487.56;4963346;28;20046;-84
2023/03/10 05:50:22;;;;;;;29.88;12.07;;;;;;;-144.87;100.00;61487.56;4975247;28;20049;-83
2023/03/10 05:52:49;;;;;;;30.08;11.45;;;;;;;-144.87;100.00;61487.56;4977200;28;20030;-84
2023/03/10 05:55:17;;;;;;;31.90;12.32;;;;;;;-144.87;100.00;61487.56;4967053;28;20038;-84
2023/03/10 05:57:44;;;;;;;30.42;11.65;;;;;;;-144.87;100.00;61487.56;4975544;28;20046;-84
2023/03/10 06:00:12;;;;;;;29.02;12.13;;;;;;;-144.87;100.00;61487.56;4964624;28;20433;-84
2023/03/10 06:02:45;;;;;;;36.13;11.80;;;;;;;-144.87;100.00;61487.56;4951277;28;20511;-84
2023/03/10 06:05:12;;;;;;;34.10;13.02;;;;;;;-144.87;100.00;61487.56;4973384;28;20322;-85
2023/03/10 06:07:39;;;;;;;31.08;11.70;;;;;;;-144.87;100.00;61487.56;4975157;28;20389;-84
2023/03/10 06:10:06;;;;;;;37.97;12.70;;;;;;;-144.87;100.00;61487.56;4979740;28;20045;-88
2023/03/10 06:12:33;;;;;;;34.15;12.05;;;;;;;-144.87;100.00;61487.56;4979491;28;20137;-83
2023/03/10 06:14:59;;;;;;;32.60;12.23;;;;;;;-144.87;100.00;61487.56;4979925;28;20625;-84
2023/03/10 06:17:25;;;;;;;32.80;12.05;;;;;;;-144.87;100.00;61487.56;4974406;28;20042;-84
2023/03/10 06:19:51;;;;;;;33.03;12.15;;;;;;;-144.87;100.00;61487.56;4976331;28;20460;-83
2023/03/10 06:22:18;;;;;;;34.38;12.27;;;;;;;-144.87;100.00;61487.56;4979728;28;20121;-83
2023/03/10 06:24:44;;;;;;;29.63;11.38;;;;;;;-144.87;100.00;61487.56;4978385;28;20365;-83
2023/03/10 06:27:11;;;;;;;33.85;13.02;;;;;;;-144.87;100.00;61487.56;4978768;28;20277;-82
2023/03/10 06:29:37;;;;;;;29.80;11.80;;;;;;;-144.87;100.00;61487.56;4977005;28;20054;-83
2023/03/10 06:32:03;;;;;;;31.13;12.90;;;;;;;-144.87;100.00;61487.56;4974319;28;20045;-81
2023/03/10 06:34:29;;;;;;;32.60;12.13;;;;;;;-144.87;100.00;61487.56;4979432;28;20488;-82
2023/03/10 06:36:56;;;;;;;37.65;12.55;;;;;;;-144.87;100.00;61487.56;4979036;28;20088;-81
2023/03/10 06:39:22;;;;;;;34.90;13.18;;;;;;;-144.87;100.00;61487.56;4977171;28;20124;-83
2023/03/10 06:41:48;;;;;;;35.92;13.77;;;;;;;-144.87;100.00;61487.56;4980078;28;20078;-81
2023/03/10 06:44:17;;;;;;;32.03;13.20;;;;;;;-144.87;100.00;61487.56;4977189;28;20501;-83
2023/03/10 06:46:45;;;;;;;37.08;13.02;;;;;;;-144.87;100.00;61487.56;4963735;28;20038;-82
2023/03/10 06:49:12;;;;;;;34.83;12.57;;;;;;;-144.87;100.00;61487.56;4974203;28;20097;-83
2023/03/10 06:51:38;;;;;;;36.10;13.85;;;;;;;-144.87;100.00;61487.56;4991905;28;20089;-83
2023/03/10 06:54:05;;;;;;;31.52;13.50;;;;;;;-144.87;100.00;61487.56;4979668;28;20047;-85
2023/03/10 06:56:32;;;;;;;32.38;12.80;;;;;;;-144.87;100.00;61487.56;4961128;28;20038;-82
2023/03/10 06:58:58;;;;;;;31.67;13.23;;;;;;;-144.87;100.00;61487.56;4967386;28;20498;-81
2023/03/10 07:01:30;;;;;;;31.33;12.57;;;;;;;-144.87;100.00;61487.56;4947935;28;20030;-84
2023/03/10 07:03:57;;;;;;;36.80;14.02;;;;;;;-144.87;100.00;61487.56;4959560;28;20169;-78
2023/03/10 07:06:23;;;;;;;35.40;13.80;;;;;;;-144.87;100.00;61487.56;4973532;28;20034;-76
2023/03/10 07:08:50;;;;;;;32.10;12.25;;;;;;;-144.87;100.00;61487.56;4972730;28;20050;-77
2023/03/10 07:11:17;;;;;;;27.48;11.65;;;;;;;-144.87;100.00;61487.56;4974275;28;20054;-77
2023/03/10 07:13:43;;;;;;;34.67;12.90;;;;;;;-144.87;100.00;61487.56;4973660;28;20038;-77
2023/03/10 07:16:09;;;;;;;31.85;12.02;;;;;;;-144.87;100.00;61487.56;4971480;28;20039;-77
2023/03/10 07:18:36;;;;;;;27.70;11.48;;;;;;;-144.87;100.00;61487.56;4967387;28;20348;-77
2023/03/10 07:21:13;;;;;;;26.88;11.90;;;;;;;-144.87;100.00;61487.56;4979704;28;20038;-76
2023/03/10 07:23:40;;;;;;;29.92;12.18;;;;;;;-144.87;100.00;61487.56;4966421;28;20480;-77
2023/03/10 07:26:07;;;;;;;27.63;12.15;;;;;;;-144.87;100.00;61487.56;4969431;28;20066;-77
2023/03/10 07:28:37;;;;;;;24.80;11.45;;;;;;;-144.87;100.00;61487.56;4961470;28;20030;-77
2023/03/10 07:31:08;;;;;;;24.17;11.50;;;;;;;-144.87;100.00;61487.56;4964154;28;20499;-77
2023/03/10 07:33:35;;;;;;;25.75;11.13;;;;;;;-144.87;100.00;61487.56;4963531;28;20050;-77
2023/03/10 07:36:06;;;;;;;27.38;11.13;;;;;;;-144.87;100.00;61487.56;4975228;28;20035;-77
2023/03/10 07:38:33;;;;;;;26.80;12.02;;;;;;;-144.87;100.00;61487.56;4976786;28;20049;-77
2023/03/10 07:40:59;;;;;;;26.17;12.30;;;;;;;-144.87;100.00;61487.56;4971129;28;20042;-76
2023/03/10 07:43:26;;;;;;;21.90;10.07;;;;;;;-144.87;100.00;61487.56;4974527;28;20035;-78
2023/03/10 07:45:53;;;;;;;24.92;10.80;;;;;;;-144.87;100.00;61487.56;4969547;28;20780;-76
2023/03/10 07:48:20;;;;;;;28.60;10.95;;;;;;;-144.87;100.00;61487.56;4990439;28;20067;-78
2023/03/10 07:50:55;;;;;;;24.13;10.68;;;;;;;-144.87;100.00;61487.56;4993914;28;20385;-77
2023/03/10 07:53:21;;;;;;;26.45;11.02;;;;;;;-144.87;100.00;61487.56;4974738;28;20052;-77
2023/03/10 07:55:48;;;;;;;23.23;10.52;;;;;;;-144.87;100.00;61487.56;4975918;28;20042;-77
2023/03/10 07:58:14;;;;;;;29.38;11.23;;;;;;;-144.87;100.00;61487.56;4981482;28;20618;-78
2023/03/10 08:00:40;;;;;;;26.55;11.48;;;;;;;-144.87;100.00;61487.56;4979039;28;20412;-77
2023/03/10 08:03:06;;;;;;;25.67;10.95;;;;;;;-144.87;100.00;61487.56;4974803;28;20477;-78
2023/03/10 08:05:33;;;;;;;27.92;10.70;;;;;;;-144.87;100.00;61487.56;4976669;28;20464;-76
2023/03/10 08:08:02;;;;;;;24.13;10.00;;;;;;;-144.87;100.00;61487.56;4977640;28;20496;-77
2023/03/10 08:10:31;;;;;;;27.75;11.60;;;;;;;-144.87;100.00;61487.56;4985174;28;20093;-77
2023/03/10 08:12:58;;;;;;;24.17;10.38;;;;;;;-144.87;100.00;61487.56;4976268;28;20372;-77
2023/03/10 08:15:25;;;;;;;20.63;9.20;;;;;;;-144.87;100.00;61487.56;4973400;28;20043;-76
2023/03/10 08:17:52;;;;;;;25.65;9.57;;;;;;;-144.87;100.00;61487.56;4957710;28;20067;-76
2023/03/10 08:20:18;;;;;;;22.95;10.10;;;;;;;-144.87;100.00;61487.56;4966478;28;20120;-77
2023/03/10 08:22:45;;;;;;;30.85;14.10;;;;;;;-144.87;100.00;61487.56;4979342;28;20551;-76
2023/03/10 08:25:11;;;;;;;35.90;12.82;;;;;;;-144.87;100.00;61487.56;4978810;28;20507;-76
2023/03/10 08:27:40;;;;;;;24.20;11.45;;;;;;;-144.87;100.00;61487.56;4962494;28;20061;-76
2023/03/10 08:30:08;;;;;;;26.23;10.90;;;;;;;-144.87;100.00;61487.56;4976193;28;20026;-76
2023/03/10 08:32:34;;;;;;;27.10;10.25;;;;;;;-144.87;100.00;61487.56;4975662;28;20107;-76
2023/03/10 08:35:02;;;;;;;17.67;8.32;;;;;;;-144.87;100.00;61487.56;4954431;28;20301;-77
2023/03/10 08:37:28;;;;;;;21.88;9.65;;;;;;;-144.87;100.00;61487.56;4990881;28;20397;-77
2023/03/10 08:39:56;;;;;;;25.67;11.07;;;;;;;-144.87;100.00;61487.56;4961150;28;20436;-76
2023/03/10 08:42:24;;;;;;;30.20;11.90;;;;;;;-144.87;100.00;61487.56;4978652;28;20527;-75
2023/03/10 08:44:50;;;;;;;21.60;9.48;;;;;;;-144.87;100.00;61487.56;4973065;28;20081;-76
2023/03/10 08:47:16;;;;;;;20.30;8.48;;;;;;;-144.87;100.00;61487.56;4967333;28;20546;-75
2023/03/10 08:49:43;;;;;;;30.15;11.35;;;;;;;-144.87;100.00;61487.56;4980849;28;20069;-75
2023/03/10 08:52:09;;;;;;;20.45;7.95;;;;;;;-144.87;100.00;61487.56;4980702;28;20031;-75
2023/03/10 08:54:35;;;;;;;22.42;9.85;;;;;;;-144.87;100.00;61487.56;4964611;28;20042;-75
2023/03/10 08:57:02;;;;;;;13.68;7.00;;;;;;;-144.87;100.00;61487.56;4972828;28;20037;-75
2023/03/10 08:59:28;;;;;;;13.80;7.03;;;;;;;-144.87;100.00;61487.56;4960170;28;20796;-75
2023/03/10 09:01:55;;;;;;;10.70;5.82;;;;;;;-144.87;100.00;61487.56;4980339;28;20518;-76
2023/03/10 09:04:21;;;;;;;14.02;6.28;;;;;;;-144.87;100.00;61487.56;4981333;28;20038;-76
2023/03/10 09:06:47;;;;;;;13.10;6.30;;;;;;;-144.87;100.00;61487.56;4976226;28;20053;-76
2023/03/10 09:09:13;;;;;;;12.30;6.20;;;;;;;-144.87;100.00;61487.56;4974841;28;20042;-75
2023/03/10 09:11:41;;;;;;;11.90;5.88;;;;;;;-144.87;100.00;61487.56;4967759;28;20279;-76
2023/03/10 09:14:08;;;;;;;12.88;6.30;;;;;;;-144.87;100.00;61487.56;4975788;28;20089;-76
2023/03/10 09:16:35;;;;;;;11.50;5.70;;;;;;;-144.87;100.00;61487.56;4976008;28;20435;-76
2023/03/10 09:19:02;;;;;;;12.05;5.80;;;;;;;-144.87;100.00;61487.56;4974685;28;20121;-75
2023/03/10 09:21:30;;;;;;;12.00;6.05;;;;;;;-144.87;100.00;61487.56;4979458;28;20038;-77
2023/03/10 09:23:57;;;;;;;13.85;7.13;;;;;;;-144.87;100.00;61487.56;4961475;28;20047;-76
2023/03/10 09:26:23;;;;;;;24.70;9.60;;;;;;;-144.87;100.00;61487.56;4972614;28;20101;-76
2023/03/10 09:28:50;;;;;;;11.43;5.80;;;;;;;-144.87;100.00;61487.56;4978451;28;20039;-76
2023/03/10 09:31:27;;;;;;;11.02;5.35;;;;;;;-144.87;100.00;61487.56;4976194;28;20353;-77
2023/03/10 09:33:53;;;;;;;10.38;5.32;;;;;;;-144.87;100.00;61487.56;4965452;28;20034;-75
2023/03/10 09:36:20;;;;;;;10.30;5.60;;;;;;;-144.87;100.00;61487.56;4977135;28;20503;-77
2023/03/10 09:38:46;;;;;;;9.65;4.82;;;;;;;-144.87;100.00;61487.56;4976114;28;20035;-78
2023/03/10 09:41:34;;;;;;;9.50;5.40;;;;;;;-144.87;100.00;61487.56;4974482;28;20161;-77
2023/03/10 09:44:14;;;;;;;11.77;5.15;;;;;;;-144.87;100.00;61487.56;4977209;28;20026;-76
2023/03/10 09:46:52;;;;;;;10.83;5.33;;;;;;;-144.87;100.00;61487.56;4962773;28;20045;-77
2023/03/10 09:49:29;;;;;;;10.82;4.63;;;;;;;-144.87;100.00;61487.56;4986433;28;20074;-76
2023/03/10 09:51:56;;;;;;;8.93;4.63;;;;;;;-144.87;100.00;61487.56;4968276;28;20480;-76
2023/03/10 09:54:46;;;;;;;8.75;4.68;;;;;;;-144.87;100.00;61487.56;4973129;28;20070;-77
2023/03/10 09:57:15;;;;;;;9.45;4.95;;;;;;;-144.87;100.00;61487.56;4975413;28;20479;-76
2023/03/10 09:59:43;;;;;;;10.05;5.43;;;;;;;-144.87;100.00;61487.56;4975005;28;20539;-77
2023/03/10 10:02:31;;;;;;;9.13;4.85;;;;;;;-144.87;100.00;61487.56;4975237;28;20576;-76
2023/03/10 10:05:01;;;;;;;8.02;4.63;;;;;;;-144.87;100.00;61487.56;4968794;28;20048;-77
2023/03/10 10:07:33;;;;;;;7.93;4.32;;;;;;;-144.87;100.00;61487.56;4953114;28;20034;-76
2023/03/10 10:10:08;;;;;;;8.45;4.47;;;;;;;-144.87;100.00;61487.56;4969496;28;20104;-77
2023/03/10 10:12:35;;;;;;;7.53;4.28;;;;;;;-144.87;100.00;61487.56;4971798;28;20459;-77
2023/03/10 10:15:16;;;;;;;8.13;4.82;;;;;;;-144.87;100.00;61487.56;4978835;28;20609;-77
2023/03/10 10:18:08;;;;;;;8.40;4.50;;;;;;;-144.87;100.00;61487.56;4984848;28;20050;-76
2023/03/10 10:20:41;;;;;;;7.75;4.57;;;;;;;-144.87;100.00;61487.56;4978514;28;20034;-76
2023/03/10 10:23:37;;;;;;;11.10;5.35;;;;;;;-144.87;100.00;61487.56;4981515;28;20118;-76
2023/03/10 10:26:18;;;;;;;9.40;4.78;;;;;;;-144.87;100.00;61487.56;4983449;28;20062;-77
2023/03/10 10:28:58;;;;;;;7.75;4.75;;;;;;;-144.87;100.00;61487.56;4987206;28;20045;-76
2023/03/10 10:31:27;;;;;;;8.75;5.03;;;;;;;-144.87;100.00;61487.56;4984247;28;20128;-76
2023/03/10 10:34:00;;;;;;;9.25;4.70;;;;;;;-144.87;100.00;61487.56;4988585;28;20053;-75
2023/03/10 10:36:47;;;;;;;19.17;8.65;;;;;;;-144.87;100.00;61487.56;4998780;28;20538;-77
2023/03/10 10:39:33;;;;;;;21.73;12.18;;;;;;;-144.87;100.00;61487.56;4971212;28;20034;-75
2023/03/10 10:42:19;;;;;;;12.68;5.93;;;;;;;-144.87;100.00;61487.56;4979135;28;20487;-76
2023/03/10 10:44:46;;;;;;;11.25;6.07;;;;;;;-144.87;100.00;61487.56;4980636;28;20035;-76
2023/03/10 10:47:30;;;;;;;13.32;6.40;;;;;;;-144.87;100.00;61487.56;4968196;28;20105;-76
2023/03/10 10:50:12;;;;;;;13.73;7.20;;;;;;;-144.87;100.00;61487.56;4991517;28;20192;-76
2023/03/10 10:52:39;;;;;;;15.57;7.60;;;;;;;-144.87;100.00;61487.56;4975680;28;20514;-78
2023/03/10 10:55:19;;;;;;;15.77;7.40;;;;;;;-144.87;100.00;61487.56;4971927;28;20039;-76
2023/03/10 10:57:54;;;;;;;16.83;8.30;;;;;;;-144.87;100.00;61487.56;4968972;28;20051;-78
2023/03/10 11:00:28;;;;;;;17.63;7.45;;;;;;;-144.87;100.00;61487.56;4964827;28;20492;-77
2023/03/10 11:02:55;;;;;;;12.65;6.97;;;;;;;-144.87;100.00;61487.56;4975386;28;20046;-77
2023/03/10 11:05:32;;;;;;;15.57;7.40;;;;;;;-144.87;100.00;61487.56;4961590;28;20042;-76